createdAt,value
2023-02-22T00:02:29.118Z,10.30
2023-02-22T00:05:21.105Z,10.30
2023-02-22T00:08:10.249Z,10.20
2023-02-22T00:10:58.550Z,10.10
2023-02-22T00:13:47.097Z,10.00
2023-02-22T00:16:35.403Z,9.90
2023-02-22T00:19:23.637Z,9.90
2023-02-22T00:22:13.216Z,9.90
2023-02-22T00:25:01.444Z,9.90
2023-02-22T00:27:52.760Z,9.90
2023-02-22T00:30:43.643Z,9.90
2023-02-22T00:33:32.255Z,10.00
2023-02-22T00:36:20.475Z,9.90
2023-02-22T00:39:10.025Z,9.90
2023-02-22T00:41:58.494Z,9.90
2023-02-22T00:44:46.891Z,9.90
2023-02-22T00:47:35.396Z,9.80
2023-02-22T00:50:25.036Z,9.90
2023-02-22T00:53:15.064Z,9.80
2023-02-22T00:56:04.889Z,9.80
2023-02-22T00:58:53.142Z,9.80
2023-02-22T01:01:41.442Z,9.70
2023-02-22T01:04:29.874Z,9.80
2023-02-22T01:07:18.270Z,9.80
2023-02-22T01:10:08.659Z,9.80
2023-02-22T01:13:00.178Z,9.80
2023-02-22T01:15:48.478Z,9.80
2023-02-22T01:18:37.252Z,9.80
2023-02-22T01:21:25.449Z,9.80
2023-02-22T01:24:16.221Z,9.90
2023-02-22T01:27:04.515Z,9.90
2023-02-22T01:29:54.086Z,9.90
2023-02-22T01:32:43.457Z,9.90
2023-02-22T01:35:35.237Z,9.80
2023-02-22T01:38:23.616Z,9.70
2023-02-22T01:41:13.069Z,9.70
2023-02-22T01:44:19.581Z,9.60
2023-02-22T01:47:09.828Z,9.60
2023-02-22T01:49:58.074Z,9.60
2023-02-22T01:52:46.295Z,9.70
2023-02-22T01:55:36.731Z,9.70
2023-02-22T01:58:27.130Z,9.70
2023-02-22T02:01:16.772Z,9.70
2023-02-22T02:04:09.970Z,9.70
2023-02-22T02:07:03.842Z,9.70
2023-02-22T02:09:58.736Z,9.70
2023-02-22T02:12:49.724Z,9.70
2023-02-22T02:15:38.388Z,9.70
2023-02-22T02:18:28.601Z,9.60
2023-02-22T02:21:50.792Z,9.60
2023-02-22T02:25:23.984Z,9.50
2023-02-22T02:28:38.587Z,9.50
2023-02-22T02:32:00.270Z,9.60
2023-02-22T02:34:53.966Z,9.60
2023-02-22T02:37:49.719Z,9.60
2023-02-22T02:40:42.236Z,9.60
2023-02-22T02:43:35.638Z,9.60
2023-02-22T02:46:29.088Z,9.60
2023-02-22T02:49:22.275Z,9.50
2023-02-22T02:52:14.234Z,9.50
2023-02-22T02:55:04.677Z,9.50
2023-02-22T02:57:52.955Z,9.40
2023-02-22T03:00:43.073Z,9.40
2023-02-22T03:03:55.185Z,9.40
2023-02-22T03:07:16.590Z,9.40
2023-02-22T03:10:19.465Z,9.30
2023-02-22T03:13:16.158Z,9.30
2023-02-22T03:16:13.467Z,9.30
2023-02-22T03:19:08.128Z,9.30
2023-02-22T03:22:02.629Z,9.30
2023-02-22T03:24:59.027Z,9.30
2023-02-22T03:27:50.496Z,9.30
2023-02-22T03:30:42.545Z,9.30
2023-02-22T03:33:36.426Z,9.30
2023-02-22T03:36:29.384Z,9.20
2023-02-22T03:39:20.776Z,9.10
2023-02-22T03:42:15.557Z,9.10
2023-02-22T03:45:06.186Z,8.90
2023-02-22T03:48:02.516Z,8.70
2023-02-22T03:50:51.901Z,8.60
2023-02-22T03:53:40.322Z,8.60
2023-02-22T03:56:35.954Z,8.60
2023-02-22T03:59:27.794Z,8.50
2023-02-22T04:02:19.026Z,8.40
2023-02-22T04:05:08.040Z,8.30
2023-02-22T04:07:57.603Z,8.30
2023-02-22T04:10:45.946Z,8.30
2023-02-22T04:13:34.161Z,8.20
2023-02-22T04:16:23.762Z,8.10
2023-02-22T04:19:12.078Z,8.10
2023-02-22T04:22:00.284Z,8.10
2023-02-22T04:24:49.002Z,8.00
2023-02-22T04:27:37.240Z,8.00
2023-02-22T04:30:25.528Z,8.00
2023-02-22T04:33:16.215Z,7.90
2023-02-22T04:36:04.819Z,7.90
2023-02-22T04:38:53.073Z,7.80
2023-02-22T04:41:41.626Z,7.70
2023-02-22T04:44:29.849Z,7.70
2023-02-22T04:47:18.097Z,7.70
2023-02-22T04:50:09.258Z,7.60
2023-02-22T04:52:57.476Z,7.70
2023-02-22T04:55:46.045Z,7.70
2023-02-22T04:58:34.307Z,7.60
2023-02-22T05:01:23.542Z,7.70
2023-02-22T05:04:11.806Z,7.70
2023-02-22T05:07:01.415Z,7.70
2023-02-22T05:09:49.662Z,7.70
2023-02-22T05:12:38.326Z,7.70
2023-02-22T05:15:26.593Z,7.80
2023-02-22T05:18:15.342Z,7.70
2023-02-22T05:21:03.657Z,7.70
2023-02-22T05:23:53.235Z,7.80
2023-02-22T05:26:41.493Z,7.80
2023-02-22T05:29:29.698Z,7.80
2023-02-22T05:32:17.960Z,7.90
2023-02-22T05:35:08.416Z,7.80
2023-02-22T05:37:57.524Z,7.80
2023-02-22T05:40:47.116Z,7.90
2023-02-22T05:43:35.416Z,7.90
2023-02-22T05:46:23.724Z,7.90
2023-02-22T05:49:12.031Z,8.00
2023-02-22T05:52:00.213Z,8.00
2023-02-22T05:54:48.441Z,8.00
2023-02-22T05:57:38.409Z,8.00
2023-02-22T06:00:28.965Z,8.10
2023-02-22T06:03:17.511Z,8.10
2023-02-22T06:06:06.113Z,8.10
2023-02-22T06:08:54.386Z,8.10
2023-02-22T06:11:42.647Z,8.10
2023-02-22T06:14:32.283Z,8.20
2023-02-22T06:17:20.711Z,8.20
2023-02-22T06:20:10.485Z,8.30
2023-02-22T06:22:59.934Z,8.30
2023-02-22T06:25:48.248Z,8.30
2023-02-22T06:28:36.811Z,8.30
2023-02-22T06:31:26.354Z,8.30
2023-02-22T06:34:14.614Z,8.20
2023-02-22T06:37:02.821Z,8.30
2023-02-22T06:39:51.101Z,8.30
2023-02-22T06:42:39.612Z,8.40
2023-02-22T06:45:28.172Z,8.40
2023-02-22T06:48:18.257Z,8.40
2023-02-22T06:51:08.292Z,8.40
2023-02-22T06:53:56.580Z,8.50
2023-02-22T06:56:44.844Z,8.50
2023-02-22T06:59:33.066Z,8.60
2023-02-22T07:02:21.299Z,8.60
2023-02-22T07:05:11.854Z,8.70
2023-02-22T07:08:05.809Z,8.80
2023-02-22T07:10:54.031Z,8.80
2023-02-22T07:13:42.253Z,8.80
2023-02-22T07:16:30.534Z,8.90
2023-02-22T07:19:18.829Z,8.90
2023-02-22T07:22:11.864Z,8.90
2023-02-22T07:25:00.384Z,8.90
2023-02-22T07:27:50.147Z,8.90
2023-02-22T07:30:39.225Z,8.80
2023-02-22T07:33:27.815Z,8.80
2023-02-22T07:36:17.977Z,8.80
2023-02-22T07:39:08.758Z,8.90
2023-02-22T07:41:57.000Z,8.90
2023-02-22T07:44:45.210Z,8.90
2023-02-22T07:47:34.137Z,8.90
2023-02-22T07:50:23.828Z,9.00
2023-02-22T07:53:14.560Z,9.00
2023-02-22T07:56:08.848Z,9.00
2023-02-22T07:58:57.167Z,9.10
2023-02-22T08:01:45.429Z,9.10
2023-02-22T08:04:33.659Z,9.20
2023-02-22T08:07:21.891Z,9.20
2023-02-22T08:10:11.515Z,9.30
2023-02-22T08:13:01.526Z,9.30
2023-02-22T08:15:52.827Z,9.30
2023-02-22T08:18:41.496Z,9.40
2023-02-22T08:21:30.378Z,9.50
2023-02-22T08:24:18.651Z,9.60
2023-02-22T08:27:06.874Z,9.60
2023-02-22T08:29:57.472Z,9.60
2023-02-22T08:32:47.339Z,9.70
2023-02-22T08:35:35.923Z,9.80
2023-02-22T08:38:26.938Z,9.90
2023-02-22T08:41:15.270Z,9.90
2023-02-22T08:44:03.797Z,10.00
2023-02-22T08:46:53.347Z,10.00
2023-02-22T08:49:42.178Z,10.10
2023-02-22T08:52:30.427Z,10.10
2023-02-22T08:55:20.960Z,10.20
2023-02-22T08:58:10.309Z,10.30
2023-02-22T09:00:58.565Z,10.40
2023-02-22T09:03:51.133Z,10.40
2023-02-22T09:06:41.593Z,10.40
2023-02-22T09:09:30.190Z,10.40
2023-02-22T09:12:18.374Z,10.40
2023-02-22T09:15:06.852Z,10.40
2023-02-22T09:17:55.764Z,10.40
2023-02-22T09:20:45.346Z,10.50
2023-02-22T09:23:34.683Z,10.60
2023-02-22T09:26:23.772Z,10.70
2023-02-22T09:29:12.002Z,10.80
2023-02-22T09:32:00.354Z,11.00
2023-02-22T09:34:48.817Z,11.10
2023-02-22T09:37:38.393Z,11.10
2023-02-22T09:40:30.092Z,11.10
2023-02-22T09:43:41.686Z,11.20
2023-02-22T09:46:34.898Z,11.30
2023-02-22T09:49:28.131Z,11.30
2023-02-22T09:52:23.129Z,11.40
2023-02-22T09:55:28.861Z,11.40
2023-02-22T09:58:26.113Z,11.60
2023-02-22T10:01:27.033Z,11.60
2023-02-22T10:04:22.091Z,11.70
2023-02-22T10:07:19.378Z,11.80
2023-02-22T10:10:13.871Z,12.00
2023-02-22T10:13:10.778Z,12.00
2023-02-22T10:16:07.427Z,12.00
2023-02-22T10:19:22.640Z,12.00
2023-02-22T10:22:33.654Z,12.10
2023-02-22T10:25:25.360Z,12.30
2023-02-22T10:28:19.436Z,12.40
2023-02-22T10:31:10.235Z,12.50
2023-02-22T10:34:06.141Z,12.70
2023-02-22T10:36:59.531Z,12.70
2023-02-22T10:39:52.987Z,12.90
2023-02-22T10:42:41.301Z,13.00
2023-02-22T10:45:33.139Z,12.90
2023-02-22T10:48:22.741Z,13.00
2023-02-22T10:51:13.466Z,13.00
2023-02-22T10:54:26.730Z,13.00
2023-02-22T10:57:15.763Z,13.10
2023-02-22T11:00:19.600Z,13.20
2023-02-22T11:03:19.529Z,13.20
2023-02-22T11:06:21.730Z,13.20
2023-02-22T11:09:13.428Z,13.30
2023-02-22T11:12:12.961Z,13.30
2023-02-22T11:15:26.989Z,13.50
2023-02-22T11:18:25.795Z,13.70
2023-02-22T11:21:18.457Z,13.80
2023-02-22T11:24:09.748Z,13.90
2023-02-22T11:27:01.481Z,14.00
2023-02-22T11:29:50.961Z,14.10
2023-02-22T11:32:45.846Z,14.30
2023-02-22T11:35:40.582Z,14.50
2023-02-22T11:38:30.562Z,14.70
2023-02-22T11:41:22.854Z,14.80
2023-02-22T11:44:23.633Z,14.80
2023-02-22T11:47:13.599Z,14.50
2023-02-22T11:50:02.350Z,14.40
2023-02-22T11:53:02.445Z,14.20
2023-02-22T11:56:02.946Z,14.10
2023-02-22T11:58:59.186Z,14.10
2023-02-22T12:01:52.355Z,14.30
2023-02-22T12:05:13.115Z,14.50
2023-02-22T12:08:19.650Z,14.70
2023-02-22T12:11:18.265Z,15.10
2023-02-22T12:14:16.369Z,15.30
2023-02-22T12:17:23.840Z,15.50
2023-02-22T12:20:22.344Z,15.90
2023-02-22T12:23:20.563Z,16.20
2023-02-22T12:26:16.932Z,16.30
2023-02-22T12:29:13.474Z,16.50
2023-02-22T12:32:05.979Z,16.60
2023-02-22T12:34:59.778Z,16.50
2023-02-22T12:38:00.637Z,16.30
2023-02-22T12:40:57.092Z,16.30
2023-02-22T12:43:51.824Z,16.20
2023-02-22T12:46:43.042Z,16.10
2023-02-22T12:49:35.864Z,16.00
2023-02-22T12:52:36.146Z,15.80
2023-02-22T12:55:27.217Z,15.70
2023-02-22T12:58:26.038Z,15.60
2023-02-22T13:01:20.345Z,15.70
2023-02-22T13:04:20.478Z,15.90
2023-02-22T13:07:26.649Z,16.10
2023-02-22T13:10:30.768Z,16.40
2023-02-22T13:13:25.844Z,16.40
2023-02-22T13:16:27.605Z,16.20
2023-02-22T13:19:31.500Z,16.10
2023-02-22T13:22:25.550Z,16.00
2023-02-22T13:25:18.585Z,16.00
2023-02-22T13:28:20.822Z,16.20
2023-02-22T13:31:41.261Z,16.30
2023-02-22T13:34:50.541Z,16.30
2023-02-22T13:38:02.620Z,16.20
2023-02-22T13:41:22.282Z,16.10
2023-02-22T13:44:41.211Z,16.10
2023-02-22T13:48:09.337Z,16.10
2023-02-22T13:51:14.962Z,16.00
2023-02-22T13:54:08.614Z,16.10
2023-02-22T13:56:58.472Z,16.00
2023-02-22T13:59:47.450Z,16.00
2023-02-22T14:03:01.702Z,16.00
2023-02-22T14:05:52.588Z,15.90
2023-02-22T14:08:42.761Z,15.70
2023-02-22T14:11:57.971Z,15.70
2023-02-22T14:15:28.705Z,15.60
2023-02-22T14:18:19.011Z,15.40
2023-02-22T14:21:08.828Z,15.30
2023-02-22T14:24:08.204Z,15.20
2023-02-22T14:27:00.036Z,15.20
2023-02-22T14:29:53.681Z,15.20
2023-02-22T14:32:42.028Z,15.20
2023-02-22T14:35:49.526Z,15.00
2023-02-22T14:38:38.890Z,14.90
2023-02-22T14:41:33.198Z,14.80
2023-02-22T14:44:27.515Z,14.80
2023-02-22T14:47:21.073Z,14.70
2023-02-22T14:50:16.154Z,14.60
2023-02-22T14:53:08.268Z,14.50
2023-02-22T14:56:02.425Z,14.40
2023-02-22T14:58:59.284Z,14.30
2023-02-22T15:02:01.655Z,14.20
2023-02-22T15:04:56.262Z,14.20
2023-02-22T15:07:53.212Z,14.10
2023-02-22T15:10:43.783Z,13.90
2023-02-22T15:13:34.272Z,13.80
2023-02-22T15:16:27.314Z,13.70
2023-02-22T15:19:25.182Z,13.60
2023-02-22T15:22:22.375Z,13.60
2023-02-22T15:25:11.766Z,13.50
2023-02-22T15:28:09.427Z,13.40
2023-02-22T15:31:16.851Z,13.40
2023-02-22T15:34:24.204Z,13.30
2023-02-22T15:37:25.026Z,13.20
2023-02-22T15:40:18.528Z,13.10
2023-02-22T15:43:09.293Z,13.00
2023-02-22T15:45:58.388Z,13.00
2023-02-22T15:49:05.492Z,12.90
2023-02-22T15:52:05.525Z,12.90
2023-02-22T15:54:54.116Z,12.80
2023-02-22T15:57:42.390Z,12.70
2023-02-22T16:00:37.016Z,12.70
2023-02-22T16:03:28.508Z,12.60
2023-02-22T16:06:29.641Z,12.50
2023-02-22T16:09:23.012Z,12.40
2023-02-22T16:12:25.544Z,12.30
2023-02-22T16:15:20.031Z,12.20
2023-02-22T16:18:29.947Z,12.10
2023-02-22T16:21:21.622Z,12.00
2023-02-22T16:24:28.500Z,11.90
2023-02-22T16:27:21.300Z,11.70
2023-02-22T16:30:25.688Z,11.60
2023-02-22T16:33:16.664Z,11.50
2023-02-22T16:36:08.192Z,11.50
2023-02-22T16:38:56.580Z,11.50
2023-02-22T16:41:46.212Z,11.30
2023-02-22T16:44:35.198Z,11.30
2023-02-22T16:47:23.384Z,11.20
2023-02-22T16:50:12.317Z,11.20
2023-02-22T16:53:02.214Z,11.10
2023-02-22T16:55:52.491Z,11.10
2023-02-22T16:58:42.978Z,11.00
2023-02-22T17:01:35.158Z,11.00
2023-02-22T17:04:25.733Z,10.90
2023-02-22T17:07:13.933Z,10.90
2023-02-22T17:10:02.152Z,10.80
2023-02-22T17:12:53.351Z,10.80
2023-02-22T17:15:42.951Z,10.70
2023-02-22T17:18:34.119Z,10.70
2023-02-22T17:21:23.153Z,10.60
2023-02-22T17:24:13.705Z,10.60
2023-02-22T17:27:04.040Z,10.60
2023-02-22T17:29:52.406Z,10.50
2023-02-22T17:32:42.064Z,10.50
2023-02-22T17:35:35.062Z,10.50
2023-02-22T17:38:27.056Z,10.50
2023-02-22T17:41:15.294Z,10.50
2023-02-22T17:44:03.826Z,10.40
2023-02-22T17:46:52.916Z,10.40
2023-02-22T17:49:44.209Z,10.40
2023-02-22T17:52:32.460Z,10.30
2023-02-22T17:55:22.372Z,10.30
2023-02-22T17:58:14.670Z,10.30
2023-02-22T18:01:03.113Z,10.30
2023-02-22T18:03:51.562Z,10.20
2023-02-22T18:06:41.257Z,10.20
2023-02-22T18:09:29.697Z,10.20
2023-02-22T18:12:18.002Z,10.20
2023-02-22T18:15:08.595Z,10.10
2023-02-22T18:17:57.690Z,10.10
2023-02-22T18:20:51.365Z,10.00
2023-02-22T18:23:40.987Z,10.00
2023-02-22T18:26:29.692Z,10.00
2023-02-22T18:29:18.034Z,10.00
2023-02-22T18:32:09.336Z,10.00
2023-02-22T18:34:57.740Z,10.00
2023-02-22T18:37:45.950Z,9.90
2023-02-22T18:40:35.722Z,9.90
2023-02-22T18:43:23.868Z,9.80
2023-02-22T18:46:14.321Z,9.80
2023-02-22T18:49:02.576Z,9.80
2023-02-22T18:51:50.798Z,9.80
2023-02-22T18:54:39.924Z,9.80
2023-02-22T18:57:29.574Z,9.80
2023-02-22T19:00:19.844Z,9.70
2023-02-22T19:03:08.142Z,9.70
2023-02-22T19:05:57.099Z,9.70
2023-02-22T19:08:47.149Z,9.70
2023-02-22T19:11:36.187Z,9.70
2023-02-22T19:14:25.745Z,9.60
2023-02-22T19:17:16.229Z,9.60
2023-02-22T19:20:06.788Z,9.50
2023-02-22T19:22:55.018Z,9.50
2023-02-22T19:25:44.208Z,9.50
2023-02-22T19:28:34.848Z,9.50
2023-02-22T19:31:28.205Z,9.50
2023-02-22T19:34:16.462Z,9.50
2023-02-22T19:37:06.032Z,9.50
2023-02-22T19:39:54.277Z,9.50
2023-02-22T19:42:42.501Z,9.50
2023-02-22T19:45:30.906Z,9.50
2023-02-22T19:48:20.809Z,9.40
2023-02-22T19:51:11.656Z,9.40
2023-02-22T19:54:02.481Z,9.40
2023-02-22T19:56:51.882Z,9.40
2023-02-22T19:59:40.339Z,9.30
2023-02-22T20:02:28.580Z,9.30
2023-02-22T20:05:18.306Z,9.30
2023-02-22T20:08:06.799Z,9.30
2023-02-22T20:10:58.828Z,9.30
2023-02-22T20:13:47.172Z,9.20
2023-02-22T20:16:36.171Z,9.30
2023-02-22T20:19:26.708Z,9.30
2023-02-22T20:22:16.356Z,9.20
2023-02-22T20:25:04.576Z,9.20
2023-02-22T20:27:52.832Z,9.20
2023-02-22T20:30:41.045Z,9.20
2023-02-22T20:33:29.829Z,9.10
2023-02-22T20:36:22.154Z,9.10
2023-02-22T20:39:14.035Z,9.00
2023-02-22T20:42:04.641Z,9.10
2023-02-22T20:44:53.222Z,9.00
2023-02-22T20:47:41.551Z,9.00
2023-02-22T20:50:29.828Z,8.90
2023-02-22T20:53:18.053Z,9.00
2023-02-22T20:56:08.321Z,8.90
2023-02-22T20:58:58.334Z,9.00
2023-02-22T21:01:48.121Z,8.90
2023-02-22T21:04:36.423Z,8.90
2023-02-22T21:07:24.635Z,9.00
2023-02-22T21:10:13.269Z,9.00
2023-02-22T21:13:05.504Z,9.00
2023-02-22T21:15:53.891Z,9.00
2023-02-22T21:18:42.319Z,8.90
2023-02-22T21:21:31.843Z,9.00
2023-02-22T21:24:20.102Z,8.90
2023-02-22T21:27:08.748Z,8.90
2023-02-22T21:29:58.717Z,8.90
2023-02-22T21:32:51.581Z,8.90
2023-02-22T21:35:42.920Z,8.90
2023-02-22T21:38:33.257Z,8.90
2023-02-22T21:41:24.216Z,8.90
2023-02-22T21:44:13.140Z,8.90
2023-02-22T21:47:02.689Z,8.90
2023-02-22T21:49:50.922Z,8.80
2023-02-22T21:52:39.522Z,8.90
2023-02-22T21:55:29.725Z,8.90
2023-02-22T21:58:18.340Z,8.90
2023-02-22T22:01:07.544Z,8.80
2023-02-22T22:04:00.035Z,8.80
2023-02-22T22:06:50.028Z,8.80
2023-02-22T22:09:41.337Z,8.80
2023-02-22T22:12:38.777Z,8.70
2023-02-22T22:15:30.155Z,8.70
2023-02-22T22:18:18.533Z,8.70
2023-02-22T22:21:11.101Z,8.60
2023-02-22T22:23:59.340Z,8.60
2023-02-22T22:26:51.079Z,8.60
2023-02-22T22:29:39.445Z,8.60
2023-02-22T22:32:27.789Z,8.50
2023-02-22T22:35:16.181Z,8.50
2023-02-22T22:38:06.701Z,8.40
2023-02-22T22:40:55.141Z,8.40
2023-02-22T22:43:46.062Z,8.40
2023-02-22T22:46:34.384Z,8.30
2023-02-22T22:49:25.139Z,8.30
2023-02-22T22:52:14.831Z,8.20
2023-02-22T22:55:07.110Z,8.20
2023-02-22T22:57:55.337Z,8.20
2023-02-22T23:00:46.273Z,8.10
2023-02-22T23:03:37.067Z,8.10
2023-02-22T23:06:27.499Z,8.10
2023-02-22T23:09:18.893Z,8.10
2023-02-22T23:12:16.802Z,8.10
2023-02-22T23:15:05.722Z,8.10
2023-02-22T23:17:56.100Z,8.10
2023-02-22T23:20:44.406Z,8.10
2023-02-22T23:23:33.262Z,8.10
2023-02-22T23:26:21.522Z,8.00
2023-02-22T23:29:11.099Z,8.00
2023-02-22T23:31:59.421Z,8.00
2023-02-22T23:34:49.601Z,8.00
2023-02-22T23:37:39.860Z,8.00
2023-02-22T23:40:29.150Z,8.00
2023-02-22T23:43:17.370Z,8.00
2023-02-22T23:46:10.775Z,8.00
2023-02-22T23:49:01.742Z,8.00
2023-02-22T23:51:51.190Z,8.00
2023-02-22T23:54:43.864Z,7.90
2023-02-22T23:57:36.756Z,7.90
